Terminal Aerodrome Forecast
Issued by NWS Cleveland, OH

Home | Current Version | Previous Version | Text Only | Print | Product List | Glossary Off
Versions: 1 2 3 4 5 6 7 8 9 10 11 12 13 14 15 16 17 18 19 20 21 22

000
FTUS41 KCLE 230900 AAA
TAFMFD
TAF AMD
KMFD 230920Z 2309/2406 31004KT P6SM SCT007
      TEMPO 2309/2313 4SM BR OVC007
     FM231400 33006KT P6SM SCT035
     FM232200 VRB04KT P6SM BKN250=

USA.gov is the U.S. government's official web portal to all federal, state and local government web resources and services.